Time;durP1;ratioP1;P1;durP2;ratioP2;P2;SDS_P1;SDS_P2;PMS_P1;PMS_P2;Temp;Humidity;BMP_temperature;BMP_pressure;BME280_temperature;BME280_humidity;BME280_pressure;Samples;Min_cycle;Max_cycle;Signal;HPM_P1;HPM_P2
2021/11/02 00:01:33;;;;;;;;;;;7.70;99.90;;;;;;5077545;28;19935;-76
2021/11/02 00:03:59;;;;;;;;;;;7.70;99.90;;;;;;5075211;28;19934;-75
2021/11/02 00:06:26;;;;;;;;;;;7.70;99.90;;;;;;5074974;28;20023;-75
2021/11/02 00:08:53;;;;;;;;;;;7.80;99.90;;;;;;5075400;28;19932;-75
2021/11/02 00:11:21;;;;;;;;;;;7.80;99.90;;;;;;5075201;28;19934;-75
2021/11/02 00:13:53;;;;;;;;;;;7.80;99.90;;;;;;5075351;28;20256;-75
2021/11/02 00:16:22;;;;;;;;;;;7.70;99.90;;;;;;5074997;28;19935;-76
2021/11/02 00:18:57;;;;;;;;;;;7.70;99.90;;;;;;5075230;28;19935;-76
2021/11/02 00:21:24;;;;;;;;;;;7.70;99.90;;;;;;5075264;28;19990;-76
2021/11/02 00:23:57;;;;;;;;;;;7.70;99.90;;;;;;5075262;28;19944;-75
2021/11/02 00:26:26;;;;;;;;;;;7.70;99.90;;;;;;5075133;28;20252;-75
2021/11/02 00:28:52;;;;;;;;;;;7.60;99.90;;;;;;5074075;28;19924;-76
2021/11/02 00:31:19;;;;;;;;;;;7.70;99.90;;;;;;5074941;28;19931;-76
2021/11/02 00:33:46;;;;;;;;;;;7.70;99.90;;;;;;5074764;28;19935;-76
2021/11/02 00:36:13;;;;;;;;;;;7.70;99.90;;;;;;5074833;28;20378;-76
2021/11/02 00:38:40;;;;;;;;;;;7.70;99.90;;;;;;5075708;28;20011;-76
2021/11/02 00:41:07;;;;;;;;;;;7.50;99.90;;;;;;5078914;28;19936;-76
2021/11/02 00:43:36;;;;;;;;;;;7.70;99.90;;;;;;5078281;28;20374;-75
2021/11/02 00:46:03;;;;;;;;;;;7.70;99.90;;;;;;5078642;28;19936;-75
2021/11/02 00:48:30;;;;;;;;;;;7.70;99.90;;;;;;5078524;28;19928;-75
2021/11/02 00:50:57;;;;;;;;;;;7.70;99.90;;;;;;5078566;28;19979;-75
2021/11/02 00:53:25;;;;;;;;;;;7.70;99.90;;;;;;5078507;28;20023;-75
2021/11/02 00:55:51;;;;;;;;;;;7.70;99.90;;;;;;5078509;28;20020;-75
2021/11/02 00:58:21;;;;;;;;;;;7.70;99.90;;;;;;5078367;28;20002;-75
2021/11/02 01:00:50;;;;;;;;;;;7.70;99.90;;;;;;5078353;28;19925;-75
2021/11/02 01:03:17;;;;;;;;;;;7.70;99.90;;;;;;5078347;28;20027;-75
2021/11/02 01:05:44;;;;;;;;;;;7.70;99.90;;;;;;5078253;28;19976;-75
2021/11/02 01:08:11;;;;;;;;;;;7.70;99.90;;;;;;5078457;28;19972;-75
2021/11/02 01:10:37;;;;;;;;;;;7.70;99.90;;;;;;5078453;28;19932;-75
2021/11/02 01:13:04;;;;;;;;;;;7.70;99.90;;;;;;5078274;28;20019;-75
2021/11/02 01:15:31;;;;;;;;;;;7.70;99.90;;;;;;5078090;28;19928;-75
2021/11/02 01:18:00;;;;;;;;;;;7.70;99.90;;;;;;5078073;28;19933;-75
2021/11/02 01:20:27;;;;;;;;;;;7.70;99.90;;;;;;5078272;28;19928;-74
2021/11/02 01:22:54;;;;;;;;;;;7.70;99.90;;;;;;5077978;28;20241;-75
2021/11/02 01:25:21;;;;;;;;;;;7.70;99.90;;;;;;5077961;28;20237;-75
2021/11/02 01:27:48;;;;;;;;;;;7.70;99.90;;;;;;5077918;28;19924;-75
2021/11/02 01:30:15;;;;;;;;;;;7.70;99.90;;;;;;5077871;28;20295;-75
2021/11/02 01:32:43;;;;;;;;;;;7.70;99.90;;;;;;5078096;28;19975;-75
2021/11/02 01:35:12;;;;;;;;;;;7.70;99.90;;;;;;5077824;28;20027;-76
2021/11/02 01:37:39;;;;;;;;;;;7.70;99.90;;;;;;5077632;28;19924;-75
2021/11/02 01:40:07;;;;;;;;;;;7.70;99.90;;;;;;5077515;28;19925;-76
2021/11/02 01:42:34;;;;;;;;;;;7.70;99.90;;;;;;5077700;28;19924;-75
2021/11/02 01:45:02;;;;;;;;;;;7.60;99.90;;;;;;5077679;28;20019;-75
2021/11/02 01:47:29;;;;;;;;;;;7.60;99.90;;;;;;5077515;28;19924;-75
2021/11/02 01:49:56;;;;;;;;;;;7.60;99.90;;;;;;5077004;28;19925;-76
2021/11/02 01:52:24;;;;;;;;;;;7.50;99.90;;;;;;5077649;28;19925;-75
2021/11/02 01:54:51;;;;;;;;;;;7.50;99.90;;;;;;5077543;28;19939;-76
2021/11/02 01:57:18;;;;;;;;;;;7.50;99.90;;;;;;5077408;28;19934;-76
2021/11/02 01:59:45;;;;;;;;;;;7.50;99.90;;;;;;5077550;28;19934;-76
2021/11/02 02:02:13;;;;;;;;;;;7.50;99.90;;;;;;5077222;28;19928;-75
2021/11/02 02:04:47;;;;;;;;;;;7.50;99.90;;;;;;5077427;28;19925;-75
2021/11/02 02:07:16;;;;;;;;;;;7.50;99.90;;;;;;5077449;28;19925;-75
2021/11/02 02:09:44;;;;;;;;;;;7.60;99.90;;;;;;5077181;28;19931;-75
2021/11/02 02:12:12;;;;;;;;;;;7.60;99.90;;;;;;5077101;28;19935;-75
2021/11/02 02:14:40;;;;;;;;;;;7.60;99.90;;;;;;5077095;28;19925;-75
2021/11/02 02:17:09;;;;;;;;;;;7.60;99.90;;;;;;5077026;28;19924;-75
2021/11/02 02:19:42;;;;;;;;;;;7.60;99.90;;;;;;5077006;28;20022;-75
2021/11/02 02:22:11;;;;;;;;;;;7.60;99.90;;;;;;5077030;28;19931;-75
2021/11/02 02:24:49;;;;;;;;;;;7.60;99.90;;;;;;5077007;28;19954;-75
2021/11/02 02:27:23;;;;;;;;;;;7.60;99.90;;;;;;5076760;28;19924;-75
2021/11/02 02:29:51;;;;;;;;;;;7.60;99.90;;;;;;5076977;28;19924;-75
2021/11/02 02:32:19;;;;;;;;;;;7.60;99.90;;;;;;5076813;28;20268;-75
2021/11/02 02:34:46;;;;;;;;;;;7.60;99.90;;;;;;5076668;28;19932;-75
2021/11/02 02:37:13;;;;;;;;;;;7.50;99.90;;;;;;5076840;28;19939;-75
2021/11/02 02:39:40;;;;;;;;;;;7.60;99.90;;;;;;5076718;28;19931;-75
2021/11/02 02:42:07;;;;;;;;;;;7.60;99.90;;;;;;5076489;28;19929;-75
2021/11/02 02:44:34;;;;;;;;;;;7.60;99.90;;;;;;5074915;28;20275;-75
2021/11/02 02:47:02;;;;;;;;;;;7.60;99.90;;;;;;5072544;28;19924;-75
2021/11/02 02:49:29;;;;;;;;;;;7.60;99.90;;;;;;5076132;28;20011;-76
2021/11/02 02:51:56;;;;;;;;;;;7.60;99.90;;;;;;5076636;28;20315;-76
2021/11/02 02:54:23;;;;;;;;;;;7.60;99.90;;;;;;5076232;28;20039;-75
2021/11/02 02:56:50;;;;;;;;;;;7.50;99.90;;;;;;5076267;28;20011;-75
2021/11/02 02:59:17;;;;;;;;;;;7.60;99.90;;;;;;5076057;28;19972;-75
2021/11/02 03:01:44;;;;;;;;;;;7.50;99.90;;;;;;5075164;28;19924;-75
2021/11/02 03:04:14;;;;;;;;;;;7.50;99.90;;;;;;5075723;28;19935;-75
2021/11/02 03:06:44;;;;;;;;;;;7.50;99.90;;;;;;5076245;28;20015;-75
2021/11/02 03:09:11;;;;;;;;;;;7.50;99.90;;;;;;5075786;28;19932;-75
2021/11/02 03:11:38;;;;;;;;;;;7.50;99.90;;;;;;5075922;28;20367;-75
2021/11/02 03:14:08;;;;;;;;;;;7.50;99.90;;;;;;5076107;28;19975;-75
2021/11/02 03:16:42;;;;;;;;;;;7.50;99.90;;;;;;5076146;28;19976;-75
2021/11/02 03:49:31;;;;;;;;;;;7.20;99.90;;;;;;5075308;28;20340;-76
2021/11/02 03:54:29;;;;;;;;;;;7.20;99.90;;;;;;5075328;28;19935;-76
2021/11/02 03:55:06;;;;;;;;;;;7.30;99.90;;;;;;5075212;28;20323;-76
2021/11/02 03:57:40;;;;;;;;;;;7.30;99.90;;;;;;5075829;28;19928;-76
2021/11/02 04:00:42;;;;;;;;;;;7.30;99.90;;;;;;5075421;28;19924;-76
2021/11/02 04:28:04;;;;;;;;;;;7.30;99.90;;;;;;5075169;28;19986;-76
2021/11/02 05:07:17;;;;;;;;;;;7.10;99.90;;;;;;4993846;28;19929;-76
2021/11/02 05:10:07;;;;;;;;;;;7.00;99.90;;;;;;4993713;28;19925;-76
2021/11/02 05:56:51;;;;;;;;;;;6.30;99.90;;;;;;5063581;28;19924;-77
2021/11/02 05:59:29;;;;;;;;;;;6.20;99.90;;;;;;5077541;28;19986;-77
2021/11/02 06:02:06;;;;;;;;;;;6.20;99.90;;;;;;5077361;28;19928;-77
2021/11/02 06:04:54;;;;;;;;;;;6.10;99.90;;;;;;5077489;28;19924;-77
2021/11/02 06:07:31;;;;;;;;;;;6.10;99.90;;;;;;5077526;28;19967;-77
2021/11/02 06:10:02;;;;;;;;;;;6.10;99.90;;;;;;5077352;28;19924;-77
2021/11/02 06:29:14;;;;;;;;;;;5.90;99.90;;;;;;4996076;28;20072;-77
2021/11/02 06:31:44;;;;;;;;;;;5.90;99.90;;;;;;4996104;28;19937;-77
2021/11/02 06:34:15;;;;;;;;;;;5.90;99.90;;;;;;4995849;28;19933;-77
2021/11/02 06:48:15;;;;;;;;;;;5.60;99.90;;;;;;4995628;28;19922;-77
2021/11/02 06:59:33;;;;;;;;;;;5.60;99.90;;;;;;5077301;28;19986;-71
2021/11/02 07:15:57;;;;;;;;;;;5.40;99.90;;;;;;5076164;28;20363;-78
2021/11/02 07:18:27;;;;;;;;;;;5.40;99.90;;;;;;5075441;28;20019;-78
2021/11/02 07:21:00;;;;;;;;;;;5.40;99.90;;;;;;5075957;28;19928;-78
2021/11/02 07:23:35;;;;;;;;;;;5.40;99.90;;;;;;5075767;28;20319;-78
2021/11/02 07:26:11;;;;;;;;;;;5.40;99.90;;;;;;5075921;28;20341;-78
2021/11/02 08:45:41;;;;;;;;;;;6.50;99.90;;;;;;5075732;28;20305;-79
2021/11/02 08:48:08;;;;;;;;;;;6.50;99.90;;;;;;5075120;28;19924;-79
2021/11/02 08:50:39;;;;;;;;;;;6.50;99.90;;;;;;5076446;28;19928;-79
2021/11/02 08:53:07;;;;;;;;;;;6.50;99.90;;;;;;5075809;28;19976;-79
2021/11/02 08:55:34;;;;;;;;;;;6.50;99.90;;;;;;5075123;28;19925;-79
2021/11/02 08:58:01;;;;;;;;;;;6.50;99.90;;;;;;5075107;28;19935;-79
2021/11/02 09:00:27;;;;;;;;;;;6.60;99.90;;;;;;5077599;28;19925;-79
2021/11/02 09:02:55;;;;;;;;;;;6.60;99.90;;;;;;5080411;28;19929;-80
2021/11/02 09:05:24;;;;;;;;;;;6.60;99.90;;;;;;5080330;28;19924;-80
2021/11/02 09:07:53;;;;;;;;;;;6.70;99.90;;;;;;5079062;28;19934;-79
2021/11/02 09:10:20;;;;;;;;;;;6.70;99.90;;;;;;5079393;28;19935;-80
2021/11/02 09:12:47;;;;;;;;;;;6.80;99.90;;;;;;5079397;28;19924;-80
2021/11/02 09:15:14;;;;;;;;;;;6.80;99.90;;;;;;5080401;28;19925;-80
2021/11/02 09:17:43;;;;;;;;;;;6.90;99.90;;;;;;5080408;28;19931;-79
2021/11/02 09:20:10;;;;;;;;;;;6.90;99.90;;;;;;5080103;28;19924;-80
2021/11/02 09:22:37;;;;;;;;;;;7.00;99.90;;;;;;5079898;28;19935;-79
2021/11/02 09:25:06;;;;;;;;;;;7.00;99.90;;;;;;5079228;28;20028;-79
2021/11/02 09:27:33;;;;;;;;;;;7.10;99.90;;;;;;5078866;28;19925;-79
2021/11/02 09:30:00;;;;;;;;;;;7.20;99.90;;;;;;5079089;28;19925;-79
2021/11/02 09:32:26;;;;;;;;;;;7.20;99.90;;;;;;5078836;28;19925;-79
2021/11/02 09:34:53;;;;;;;;;;;7.30;99.90;;;;;;5078342;28;20345;-79
2021/11/02 09:37:21;;;;;;;;;;;7.40;99.90;;;;;;5078565;28;19997;-79
2021/11/02 09:39:49;;;;;;;;;;;7.40;99.90;;;;;;5078741;28;19924;-79
2021/11/02 09:42:36;;;;;;;;;;;7.40;99.90;;;;;;5078427;28;20367;-79
2021/11/02 09:45:18;;;;;;;;;;;7.50;99.90;;;;;;5044945;28;20021;-79
2021/11/02 09:47:57;;;;;;;;;;;7.50;99.90;;;;;;5075402;28;20345;-79
2021/11/02 09:50:42;;;;;;;;;;;7.40;99.90;;;;;;5078222;28;19990;-79
2021/11/02 09:53:24;;;;;;;;;;;7.30;99.90;;;;;;5078626;28;19935;-79
2021/11/02 09:56:04;;;;;;;;;;;7.30;99.90;;;;;;5075012;28;20364;-79
2021/11/02 09:58:55;;;;;;;;;;;7.30;99.90;;;;;;5078533;28;19934;-79
2021/11/02 10:01:30;;;;;;;;;;;7.30;99.90;;;;;;4996667;28;19935;-79
2021/11/02 10:04:30;;;;;;;;;;;7.40;99.90;;;;;;4996824;28;19936;-79
2021/11/02 10:07:13;;;;;;;;;;;7.40;99.90;;;;;;4938881;29;20034;-79
2021/11/02 10:09:44;;;;;;;;;;;7.40;99.90;;;;;;4938832;29;20022;-80
2021/11/02 10:12:13;;;;;;;;;;;7.50;99.90;;;;;;4938460;29;20272;-79
2021/11/02 10:14:45;;;;;;;;;;;7.50;99.90;;;;;;4938366;29;19937;-79
2021/11/02 10:17:24;;;;;;;;;;;7.50;99.90;;;;;;4938279;29;19990;-79
2021/11/02 10:20:04;;;;;;;;;;;7.50;99.90;;;;;;4938238;29;19970;-79
2021/11/02 10:22:55;;;;;;;;;;;7.50;99.90;;;;;;4939229;29;19934;-79
2021/11/02 10:25:28;;;;;;;;;;;7.60;99.90;;;;;;4938757;29;19974;-79
2021/11/02 10:28:10;;;;;;;;;;;7.70;99.90;;;;;;4938648;29;19927;-79
2021/11/02 10:30:38;;;;;;;;;;;7.80;99.90;;;;;;4926401;29;19930;-79
2021/11/02 10:33:07;;;;;;;;;;;7.90;99.90;;;;;;4938216;29;19927;-79
2021/11/02 10:35:40;;;;;;;;;;;8.10;99.90;;;;;;4938432;29;20428;-79
2021/11/02 10:38:09;;;;;;;;;;;8.20;99.90;;;;;;4971315;28;19926;-79
2021/11/02 10:40:40;;;;;;;;;;;8.30;99.90;;;;;;5021026;28;20264;-79
2021/11/02 10:43:25;;;;;;;;;;;8.30;99.90;;;;;;5076990;28;19924;-79
2021/11/02 10:45:53;;;;;;;;;;;8.40;99.90;;;;;;5074485;28;19924;-79
2021/11/02 10:48:20;;;;;;;;;;;8.40;99.90;;;;;;5073900;28;20369;-79
2021/11/02 10:50:48;;;;;;;;;;;8.50;99.90;;;;;;5056641;28;20277;-79
2021/11/02 10:53:18;;;;;;;;;;;8.50;99.90;;;;;;5056702;28;19935;-78
2021/11/02 10:55:49;;;;;;;;;;;8.60;99.90;;;;;;5056446;28;19925;-79
2021/11/02 10:58:21;;;;;;;;;;;8.60;99.90;;;;;;5056586;28;19924;-79
2021/11/02 11:00:48;;;;;;;;;;;8.70;99.90;;;;;;5056781;28;20265;-79
2021/11/02 11:03:15;;;;;;;;;;;8.80;99.90;;;;;;5056396;28;19924;-79
2021/11/02 11:05:42;;;;;;;;;;;8.80;99.90;;;;;;5056376;28;20364;-79
2021/11/02 11:08:08;;;;;;;;;;;8.90;99.90;;;;;;5056272;28;19931;-79
2021/11/02 11:10:37;;;;;;;;;;;8.80;99.90;;;;;;5056486;28;19939;-79
2021/11/02 11:13:03;;;;;;;;;;;8.70;99.90;;;;;;5056082;28;19924;-79
2021/11/02 11:15:31;;;;;;;;;;;8.70;99.90;;;;;;5056194;28;19924;-79
2021/11/02 11:18:02;;;;;;;;;;;8.60;99.90;;;;;;5056257;28;20023;-79
2021/11/02 11:20:28;;;;;;;;;;;8.60;99.90;;;;;;5056075;28;19932;-79
2021/11/02 11:22:55;;;;;;;;;;;8.60;99.90;;;;;;5055457;28;19928;-79
2021/11/02 11:25:25;;;;;;;;;;;8.60;99.90;;;;;;5056129;28;19932;-79
2021/11/02 11:27:55;;;;;;;;;;;8.60;99.90;;;;;;5056152;28;19924;-79
2021/11/02 11:30:22;;;;;;;;;;;8.60;99.90;;;;;;5056106;28;19924;-79
2021/11/02 11:32:50;;;;;;;;;;;8.70;99.90;;;;;;5055619;28;19935;-79
2021/11/02 11:35:17;;;;;;;;;;;8.70;99.90;;;;;;5055672;28;20035;-79
2021/11/02 11:37:44;;;;;;;;;;;8.70;99.90;;;;;;5055844;28;19924;-79
2021/11/02 11:40:11;;;;;;;;;;;8.70;99.90;;;;;;5056091;28;19935;-79
2021/11/02 11:42:38;;;;;;;;;;;8.70;99.90;;;;;;5055710;28;19943;-79
2021/11/02 11:45:09;;;;;;;;;;;8.70;99.90;;;;;;5055839;28;20345;-79
2021/11/02 11:47:35;;;;;;;;;;;8.70;99.90;;;;;;5055528;28;20245;-79
2021/11/02 11:50:13;;;;;;;;;;;8.80;99.90;;;;;;5055348;28;20329;-79
2021/11/02 11:52:43;;;;;;;;;;;8.80;99.90;;;;;;5055503;28;19925;-79
2021/11/02 11:55:10;;;;;;;;;;;8.80;99.90;;;;;;5055506;28;19925;-79
2021/11/02 11:57:38;;;;;;;;;;;8.80;99.90;;;;;;5055336;28;19931;-79
2021/11/02 12:00:05;;;;;;;;;;;8.90;99.90;;;;;;5055671;28;19925;-79
2021/11/02 12:02:36;;;;;;;;;;;8.80;99.90;;;;;;5055515;28;19925;-79
2021/11/02 12:05:04;;;;;;;;;;;8.80;99.90;;;;;;5055202;28;19935;-79
2021/11/02 12:07:32;;;;;;;;;;;8.80;99.90;;;;;;5055447;28;19935;-79
2021/11/02 12:10:03;;;;;;;;;;;8.80;99.90;;;;;;5055522;28;19925;-79
2021/11/02 12:12:30;;;;;;;;;;;8.80;99.90;;;;;;5055329;28;20238;-79
2021/11/02 12:14:56;;;;;;;;;;;8.90;99.90;;;;;;5054942;28;19925;-79
2021/11/02 12:17:24;;;;;;;;;;;8.90;99.90;;;;;;5055327;28;19935;-79
2021/11/02 12:19:59;;;;;;;;;;;8.90;99.90;;;;;;5055401;28;20321;-79
2021/11/02 12:22:30;;;;;;;;;;;8.90;99.90;;;;;;5055104;28;20275;-79
2021/11/02 12:25:09;;;;;;;;;;;8.80;99.90;;;;;;5055089;28;19924;-79
2021/11/02 12:27:37;;;;;;;;;;;8.80;99.90;;;;;;5054951;28;19971;-79
2021/11/02 12:30:04;;;;;;;;;;;8.80;99.90;;;;;;5055391;28;19932;-79
2021/11/02 12:32:31;;;;;;;;;;;8.80;99.90;;;;;;5055060;28;19940;-79
2021/11/02 12:35:07;;;;;;;;;;;8.80;99.90;;;;;;5057906;28;19936;-79
2021/11/02 12:37:34;;;;;;;;;;;8.90;99.90;;;;;;5058182;28;19975;-79
2021/11/02 12:40:13;;;;;;;;;;;8.90;99.90;;;;;;5059118;28;19940;-79
2021/11/02 12:42:42;;;;;;;;;;;8.90;99.90;;;;;;5059112;28;19924;-79
2021/11/02 12:45:09;;;;;;;;;;;9.00;99.90;;;;;;5059348;28;20015;-79
2021/11/02 12:47:35;;;;;;;;;;;9.10;99.90;;;;;;5059032;28;20345;-79
2021/11/02 12:50:05;;;;;;;;;;;9.10;99.90;;;;;;5058862;28;19924;-79
2021/11/02 12:52:32;;;;;;;;;;;9.20;99.90;;;;;;5059135;28;19925;-80
2021/11/02 12:55:00;;;;;;;;;;;9.20;99.90;;;;;;5059074;28;19931;-79
2021/11/02 12:57:33;;;;;;;;;;;9.20;99.90;;;;;;5059040;28;19925;-79
2021/11/02 13:00:00;;;;;;;;;;;9.10;99.90;;;;;;5058814;28;19929;-79
2021/11/02 13:02:31;;;;;;;;;;;9.10;99.90;;;;;;5058437;28;19925;-79
2021/11/02 13:04:59;;;;;;;;;;;9.10;99.90;;;;;;5058590;28;19929;-79
2021/11/02 13:07:28;;;;;;;;;;;9.00;99.90;;;;;;5058521;28;19991;-79
2021/11/02 13:09:55;;;;;;;;;;;9.00;99.90;;;;;;5058718;28;19935;-79
2021/11/02 13:12:24;;;;;;;;;;;9.00;99.90;;;;;;5058491;28;19925;-79
2021/11/02 13:14:52;;;;;;;;;;;9.00;99.90;;;;;;5058661;28;19951;-79
2021/11/02 13:17:25;;;;;;;;;;;9.10;99.90;;;;;;5058374;28;19929;-79
2021/11/02 13:19:54;;;;;;;;;;;9.10;99.90;;;;;;5058043;28;20257;-79
2021/11/02 13:22:22;;;;;;;;;;;9.10;99.90;;;;;;5058499;28;19990;-79
2021/11/02 13:25:00;;;;;;;;;;;9.00;99.90;;;;;;5058194;28;19929;-78
2021/11/02 13:27:31;;;;;;;;;;;9.00;99.90;;;;;;5058324;28;19925;-79
2021/11/02 13:29:58;;;;;;;;;;;9.00;99.90;;;;;;5058289;28;19936;-79
2021/11/02 13:32:28;;;;;;;;;;;9.00;99.90;;;;;;5057378;28;19925;-79
2021/11/02 13:34:55;;;;;;;;;;;9.00;99.90;;;;;;5054357;28;19933;-79
2021/11/02 13:37:22;;;;;;;;;;;9.00;99.90;;;;;;5058181;28;19925;-79
2021/11/02 13:39:53;;;;;;;;;;;9.00;99.90;;;;;;5058115;28;20007;-79
2021/11/02 13:42:21;;;;;;;;;;;9.00;99.90;;;;;;5057742;28;19935;-79
2021/11/02 13:44:51;;;;;;;;;;;9.00;99.90;;;;;;5057755;28;19947;-79
2021/11/02 13:47:18;;;;;;;;;;;9.00;99.90;;;;;;5057051;28;20019;-79
2021/11/02 13:49:46;;;;;;;;;;;9.00;99.90;;;;;;5057378;28;19924;-79
2021/11/02 13:52:13;;;;;;;;;;;9.00;99.90;;;;;;5057685;28;19924;-79
2021/11/02 13:54:40;;;;;;;;;;;8.90;99.90;;;;;;5057599;28;19925;-79
2021/11/02 13:57:07;;;;;;;;;;;8.90;99.90;;;;;;5057583;28;19925;-79
2021/11/02 13:59:35;;;;;;;;;;;8.90;99.90;;;;;;5057337;28;19935;-79
2021/11/02 14:02:02;;;;;;;;;;;8.90;99.90;;;;;;5057346;28;19925;-79
2021/11/02 14:04:29;;;;;;;;;;;8.90;99.90;;;;;;5057411;28;19935;-79
2021/11/02 14:06:57;;;;;;;;;;;9.00;99.90;;;;;;5057749;28;19940;-79
2021/11/02 14:09:24;;;;;;;;;;;9.00;99.90;;;;;;5057422;28;19925;-79
2021/11/02 14:11:51;;;;;;;;;;;9.10;99.90;;;;;;5057433;28;19924;-79
2021/11/02 14:14:29;;;;;;;;;;;9.10;99.90;;;;;;5057250;28;19950;-78
2021/11/02 14:16:57;;;;;;;;;;;9.20;99.90;;;;;;5057435;28;19929;-79
2021/11/02 14:19:36;;;;;;;;;;;9.20;99.90;;;;;;5057866;28;20337;-79
2021/11/02 14:22:03;;;;;;;;;;;9.20;99.90;;;;;;5057261;28;20349;-78
2021/11/02 14:24:30;;;;;;;;;;;9.20;99.90;;;;;;5056847;28;20242;-78
2021/11/02 14:26:57;;;;;;;;;;;9.20;99.90;;;;;;5057433;28;19929;-79
2021/11/02 14:29:39;;;;;;;;;;;9.20;99.90;;;;;;5056881;28;19924;-79
2021/11/02 14:32:07;;;;;;;;;;;9.20;99.90;;;;;;5056364;28;19925;-79
2021/11/02 14:34:47;;;;;;;;;;;9.20;99.90;;;;;;5057018;28;19935;-78
2021/11/02 14:37:16;;;;;;;;;;;9.20;99.90;;;;;;5056884;28;19932;-79
2021/11/02 14:40:11;;;;;;;;;;;9.20;99.90;;;;;;5057011;28;19991;-78
2021/11/02 14:42:41;;;;;;;;;;;9.20;99.90;;;;;;4976353;28;20007;-78
2021/11/02 14:45:08;;;;;;;;;;;9.20;99.90;;;;;;4976411;28;19926;-79
2021/11/02 14:47:37;;;;;;;;;;;9.30;99.90;;;;;;4976087;28;20030;-78
2021/11/02 14:50:06;;;;;;;;;;;9.30;99.90;;;;;;4959583;28;19933;-78
2021/11/02 14:52:35;;;;;;;;;;;9.40;99.90;;;;;;4956733;29;20029;-79
2021/11/02 14:55:02;;;;;;;;;;;9.40;99.90;;;;;;4956894;29;19927;-78
2021/11/02 14:57:53;;;;;;;;;;;9.40;99.90;;;;;;4955861;28;20318;-79
2021/11/02 15:00:38;;;;;;;;;;;9.50;99.90;;;;;;4947274;29;19930;-79
2021/11/02 15:03:17;;;;;;;;;;;9.50;99.90;;;;;;4956801;29;20267;-78
2021/11/02 15:05:43;;;;;;;;;;;9.50;99.90;;;;;;4956532;29;19926;-78
2021/11/02 15:08:13;;;;;;;;;;;9.50;99.90;;;;;;4956673;29;19926;-78
2021/11/02 15:10:43;;;;;;;;;;;9.50;99.90;;;;;;4956553;29;19926;-78
2021/11/02 15:13:10;;;;;;;;;;;9.40;99.90;;;;;;4956451;29;19926;-78
2021/11/02 15:15:37;;;;;;;;;;;9.40;99.90;;;;;;4956371;29;20385;-78
2021/11/02 15:18:04;;;;;;;;;;;9.40;99.90;;;;;;4985666;28;19925;-78
2021/11/02 15:20:33;;;;;;;;;;;9.40;99.90;;;;;;5035997;28;20338;-78
2021/11/02 15:22:59;;;;;;;;;;;9.40;99.90;;;;;;5035675;28;19935;-78
2021/11/02 15:25:26;;;;;;;;;;;9.40;99.90;;;;;;5036125;28;19959;-78
2021/11/02 15:27:58;;;;;;;;;;;9.30;99.90;;;;;;5035942;28;19925;-78
2021/11/02 15:30:24;;;;;;;;;;;9.30;99.90;;;;;;5036266;28;19937;-78
2021/11/02 15:32:51;;;;;;;;;;;9.30;99.90;;;;;;5035766;28;19949;-78
2021/11/02 15:35:18;;;;;;;;;;;9.30;99.90;;;;;;5035784;28;19927;-78
2021/11/02 15:37:47;;;;;;;;;;;9.30;99.90;;;;;;5035818;28;19925;-78
2021/11/02 15:40:15;;;;;;;;;;;9.20;99.90;;;;;;5035527;28;19929;-78
2021/11/02 15:42:42;;;;;;;;;;;9.20;99.90;;;;;;5035668;28;19925;-79
2021/11/02 15:45:10;;;;;;;;;;;9.20;99.90;;;;;;5035691;28;20325;-79
2021/11/02 15:47:39;;;;;;;;;;;9.10;99.90;;;;;;5035406;28;20416;-79
2021/11/02 15:50:07;;;;;;;;;;;9.10;99.90;;;;;;5035420;28;19935;-79
2021/11/02 15:52:34;;;;;;;;;;;9.00;99.90;;;;;;5035358;28;20367;-79
2021/11/02 15:55:07;;;;;;;;;;;9.00;99.90;;;;;;5035387;28;19936;-79
2021/11/02 15:57:37;;;;;;;;;;;8.90;99.90;;;;;;5035555;28;19935;-79
2021/11/02 16:00:05;;;;;;;;;;;8.90;99.90;;;;;;5035568;28;19925;-79
2021/11/02 16:02:33;;;;;;;;;;;8.90;99.90;;;;;;5035900;28;19990;-80
2021/11/02 16:05:01;;;;;;;;;;;8.90;99.90;;;;;;5042757;28;19964;-81
2021/11/02 16:07:31;;;;;;;;;;;8.90;99.90;;;;;;5046159;28;20016;-81
2021/11/02 16:09:57;;;;;;;;;;;8.90;99.90;;;;;;5047062;28;19931;-81
2021/11/02 16:12:27;;;;;;;;;;;8.90;99.90;;;;;;5047572;28;20001;-81
2021/11/02 16:14:58;;;;;;;;;;;8.90;99.90;;;;;;5050947;28;19925;-81
2021/11/02 16:17:25;;;;;;;;;;;8.80;99.90;;;;;;5048994;28;19932;-81
2021/11/02 16:19:54;;;;;;;;;;;8.80;99.90;;;;;;5047925;28;20184;-81
2021/11/02 16:22:21;;;;;;;;;;;8.80;99.90;;;;;;5048191;28;19925;-81
2021/11/02 16:25:00;;;;;;;;;;;8.70;99.90;;;;;;5047625;28;19925;-81
2021/11/02 16:27:28;;;;;;;;;;;8.70;99.90;;;;;;5048418;28;19936;-81
2021/11/02 16:29:55;;;;;;;;;;;8.70;99.90;;;;;;5050169;28;19925;-81
2021/11/02 16:32:22;;;;;;;;;;;8.70;99.90;;;;;;5049539;28;19925;-81
2021/11/02 16:34:49;;;;;;;;;;;8.60;99.90;;;;;;5049912;28;19964;-81
2021/11/02 16:37:31;;;;;;;;;;;8.60;99.90;;;;;;5049864;28;19935;-81
2021/11/02 16:40:16;;;;;;;;;;;8.50;99.90;;;;;;5045883;28;19925;-81
2021/11/02 16:42:48;;;;;;;;;;;8.50;99.90;;;;;;5049473;28;19925;-81
2021/11/02 16:45:15;;;;;;;;;;;8.40;99.90;;;;;;5048022;28;19936;-81
2021/11/02 16:47:41;;;;;;;;;;;8.40;99.90;;;;;;5047160;28;19925;-80
2021/11/02 16:50:08;;;;;;;;;;;8.30;99.90;;;;;;5063344;28;20276;-81
2021/11/02 16:52:37;;;;;;;;;;;8.30;99.90;;;;;;5064881;28;19925;-80
2021/11/02 16:55:08;;;;;;;;;;;8.20;99.90;;;;;;5066877;28;19931;-81
2021/11/02 16:57:35;;;;;;;;;;;8.20;99.90;;;;;;5065754;28;19939;-80
2021/11/02 17:00:04;;;;;;;;;;;8.20;99.90;;;;;;5064876;28;20272;-80
2021/11/02 17:02:32;;;;;;;;;;;8.30;99.90;;;;;;5063999;28;19925;-80
2021/11/02 17:05:00;;;;;;;;;;;8.30;99.90;;;;;;5064544;28;19978;-80
2021/11/02 17:07:33;;;;;;;;;;;8.30;99.90;;;;;;5063922;28;19924;-80
2021/11/02 17:10:00;;;;;;;;;;;8.30;99.90;;;;;;5061115;28;19972;-80
2021/11/02 17:12:28;;;;;;;;;;;8.30;99.90;;;;;;5060714;28;19925;-80
2021/11/02 17:14:55;;;;;;;;;;;8.30;99.90;;;;;;5060180;28;19925;-80
2021/11/02 17:17:23;;;;;;;;;;;8.30;99.90;;;;;;5058791;28;19935;-80
2021/11/02 17:19:50;;;;;;;;;;;8.30;99.90;;;;;;5058313;28;19925;-80
2021/11/02 17:22:17;;;;;;;;;;;8.40;99.90;;;;;;5061099;28;19925;-80
2021/11/02 17:24:44;;;;;;;;;;;8.40;99.90;;;;;;5063301;28;19925;-80
2021/11/02 17:27:12;;;;;;;;;;;8.40;99.90;;;;;;5061533;28;19924;-80
2021/11/02 17:29:39;;;;;;;;;;;8.40;99.90;;;;;;5063798;28;19925;-80
2021/11/02 17:32:06;;;;;;;;;;;8.40;99.90;;;;;;5064813;28;19924;-79
2021/11/02 17:34:36;;;;;;;;;;;8.40;99.90;;;;;;5071132;28;19956;-82
2021/11/02 17:37:06;;;;;;;;;;;8.40;99.90;;;;;;5210030;22;19923;-79
2021/11/02 17:42:10;;;;;;;;;;;8.40;99.90;;;;;;5181210;22;19924;-77
2021/11/02 17:44:37;;;;;;;;;;;8.30;99.90;;;;;;5079751;28;19939;-78
2021/11/02 17:47:09;;;;;;;;;;;8.30;99.90;;;;;;5262697;22;20302;-80
2021/11/02 17:49:38;;;;;;;;;;;8.20;99.90;;;;;;5090329;28;19963;-80
2021/11/02 17:52:05;;;;;;;;;;;8.20;99.90;;;;;;5087979;28;19994;-80
2021/11/02 17:54:32;;;;;;;;;;;8.10;99.90;;;;;;5083048;28;19984;-80
2021/11/02 17:56:59;;;;;;;;;;;8.10;99.90;;;;;;5080239;28;19924;-79
2021/11/02 17:59:26;;;;;;;;;;;8.00;99.90;;;;;;5078421;28;19928;-79
2021/11/02 18:01:53;;;;;;;;;;;8.00;99.90;;;;;;5078218;28;19924;-79
2021/11/02 18:04:20;;;;;;;;;;;8.00;99.90;;;;;;5079378;28;19935;-79
2021/11/02 18:06:49;;;;;;;;;;;7.90;99.90;;;;;;5078627;28;19935;-80
2021/11/02 18:09:16;;;;;;;;;;;7.90;99.90;;;;;;5080414;28;19935;-80
2021/11/02 18:11:43;;;;;;;;;;;7.90;99.90;;;;;;5079803;28;19924;-79
2021/11/02 18:14:10;;;;;;;;;;;7.80;99.90;;;;;;5078950;28;19924;-79
2021/11/02 18:16:37;;;;;;;;;;;7.80;99.90;;;;;;5082947;28;19935;-80
2021/11/02 18:19:05;;;;;;;;;;;7.80;99.90;;;;;;5086352;28;19924;-80
2021/11/02 18:21:32;;;;;;;;;;;7.80;99.90;;;;;;5086182;28;19924;-80
2021/11/02 18:24:02;;;;;;;;;;;7.70;99.90;;;;;;5087436;28;20022;-80
2021/11/02 18:26:28;;;;;;;;;;;7.70;99.90;;;;;;5083931;28;19924;-81
2021/11/02 18:28:55;;;;;;;;;;;7.70;99.90;;;;;;5094428;28;19912;-83
2021/11/02 18:31:26;;;;;;;;;;;7.70;99.90;;;;;;5093987;28;19983;-77
2021/11/02 18:33:53;;;;;;;;;;;7.70;99.90;;;;;;5082512;28;20031;-80
2021/11/02 18:36:20;;;;;;;;;;;7.70;99.90;;;;;;5083429;28;20037;-80
2021/11/02 18:38:47;;;;;;;;;;;7.70;99.90;;;;;;5079602;28;20365;-80
2021/11/02 18:41:16;;;;;;;;;;;7.60;99.90;;;;;;5078563;28;19934;-80
2021/11/02 18:43:43;;;;;;;;;;;7.40;99.90;;;;;;5079471;28;20280;-80
2021/11/02 18:46:10;;;;;;;;;;;7.60;99.90;;;;;;5077755;28;19931;-79
2021/11/02 18:48:37;;;;;;;;;;;7.50;99.90;;;;;;5078777;28;19950;-80
2021/11/02 18:51:03;;;;;;;;;;;7.40;99.90;;;;;;5077057;28;19986;-79
2021/11/02 18:53:30;;;;;;;;;;;7.30;99.90;;;;;;5077279;28;19924;-79
2021/11/02 18:55:57;;;;;;;;;;;7.30;99.90;;;;;;5079910;28;19935;-76
2021/11/02 18:58:25;;;;;;;;;;;7.20;99.90;;;;;;5083433;28;19935;-77
2021/11/02 19:00:52;;;;;;;;;;;7.30;99.90;;;;;;5077176;28;19931;-77
2021/11/02 19:03:19;;;;;;;;;;;7.20;99.90;;;;;;5076692;28;20362;-77
2021/11/02 19:05:46;;;;;;;;;;;7.20;99.90;;;;;;5076362;28;20352;-76
2021/11/02 19:08:13;;;;;;;;;;;7.20;99.90;;;;;;5076310;28;19924;-76
2021/11/02 19:10:40;;;;;;;;;;;7.10;99.90;;;;;;5076465;28;19925;-76
2021/11/02 19:13:07;;;;;;;;;;;7.10;99.90;;;;;;5076303;28;20272;-76